Time;durP1;ratioP1;P1;durP2;ratioP2;P2;SDS_P1;SDS_P2;PMS_P1;PMS_P2;Temp;Humidity;BMP_temperature;BMP_pressure;BME280_temperature;BME280_humidity;BME280_pressure;Samples;Min_cycle;Max_cycle;Signal;HPM_P1;HPM_P2
2023/01/27 00:00:03;;;;;;;;;;;;;;;4.37;84.08;100479.56;5063658;28;19927;-75
2023/01/27 00:02:28;;;;;;;;;;;;;;;3.41;90.27;100427.69;5064560;28;19916;-75
2023/01/27 00:04:53;;;;;;;;;;;;;;;3.73;85.45;100444.44;5077807;28;19924;-75
2023/01/27 00:07:19;;;;;;;;;;;;;;;3.31;85.18;100437.66;5076922;28;19986;-75
2023/01/27 00:09:44;;;;;;;;;;;;;;;3.70;81.84;100466.47;5080121;28;20532;-75
2023/01/27 00:15:05;;;;;;;;;;;;;;;3.56;83.60;100476.38;5077113;28;19965;-75
2023/01/27 00:17:30;;;;;;;;;;;;;;;3.18;85.95;100466.25;5075478;28;20002;-75
2023/01/27 00:19:55;;;;;;;;;;;;;;;3.17;84.49;100472.19;5059233;28;20003;-74
2023/01/27 00:25:04;;;;;;;;;;;;;;;3.43;84.26;100499.88;5078550;28;19967;-74
2023/01/27 00:27:29;;;;;;;;;;;;;;;3.47;84.58;100496.56;5077276;28;20334;-74
2023/01/27 00:29:55;;;;;;;;;;;;;;;3.83;83.72;100518.50;5075630;28;19920;-74
2023/01/27 00:35:04;;;;;;;;;;;;;;;3.81;87.84;100499.75;5078073;28;20022;-75
2023/01/27 00:37:29;;;;;;;;;;;;;;;3.73;89.44;100500.47;5055864;28;20035;-75
2023/01/27 00:39:54;;;;;;;;;;;;;;;3.66;87.72;100496.09;5056769;28;20094;-75
2023/01/27 00:42:20;;;;;;;;;;;;;;;3.41;88.59;100487.09;5074027;28;19916;-75
2023/01/27 00:45:47;;;;;;;;;;;;;;;3.70;87.09;100505.53;5055374;28;19923;-75
2023/01/27 00:47:30;;;;;;;;;;;;;;;3.67;88.97;100509.69;5077756;28;20011;-74
2023/01/27 00:49:55;;;;;;;;;;;;;;;3.37;89.08;100487.00;5058358;28;20007;-74
2023/01/27 00:52:20;;;;;;;;;;;;;;;3.32;86.67;100492.84;5076424;28;19931;-74
2023/01/27 00:54:46;;;;;;;;;;;;;;;3.69;86.44;100513.97;5075376;28;20396;-74
2023/01/27 00:57:11;;;;;;;;;;;;;;;3.47;89.97;100509.31;5075587;28;20011;-74
2023/01/27 00:59:36;;;;;;;;;;;;;;;3.57;91.44;100508.66;5075913;28;19948;-74
2023/01/27 01:02:01;;;;;;;;;;;;;;;3.44;91.77;100496.47;5079886;28;19916;-74
2023/01/27 01:04:26;;;;;;;;;;;;;;;3.22;90.43;100490.94;5078092;28;19938;-75
2023/01/27 01:06:52;;;;;;;;;;;;;;;4.13;86.89;100529.31;5074908;28;19985;-75
2023/01/27 01:09:17;;;;;;;;;;;;;;;4.09;91.15;100519.00;5076492;28;19924;-74
2023/01/27 01:11:42;;;;;;;;;;;;;;;4.22;91.87;100520.09;5057470;28;19916;-74
2023/01/27 01:14:07;;;;;;;;;;;;;;;4.11;93.99;100499.50;5073878;28;19917;-74
2023/01/27 01:16:33;;;;;;;;;;;;;;;4.06;94.81;100488.34;5078542;28;19927;-74
2023/01/27 01:18:58;;;;;;;;;;;;;;;3.75;96.12;100468.25;5076103;28;19959;-75
2023/01/27 01:21:23;;;;;;;;;;;;;;;3.66;93.76;100468.06;5077330;28;19931;-74
2023/01/27 01:23:48;;;;;;;;;;;;;;;4.23;91.56;100493.78;5075259;28;19923;-74
2023/01/27 01:26:14;;;;;;;;;;;;;;;4.29;92.91;100497.28;5079051;28;19977;-74
2023/01/27 01:28:39;;;;;;;;;;;;;;;4.15;94.11;100486.84;5059644;28;19923;-74
2023/01/27 01:31:06;;;;;;;;;;;;;;;4.76;93.79;100504.00;5060424;28;20294;-74
2023/01/27 01:33:31;;;;;;;;;;;;;;;4.63;97.50;100476.56;5077385;28;19926;-74
2023/01/27 01:35:56;;;;;;;;;;;;;;;4.48;100.00;100447.44;5059768;28;19998;-74
2023/01/27 01:38:21;;;;;;;;;;;;;;;4.52;100.00;100449.22;5058044;28;19912;-74
2023/01/27 01:40:46;;;;;;;;;;;;;;;3.65;100.00;100399.25;5063564;28;19912;-75
2023/01/27 01:43:13;;;;;;;;;;;;;;;4.25;96.25;100438.56;5077316;28;19927;-75
2023/01/27 01:45:44;;;;;;;;;;;;;;;4.12;97.73;100428.13;5058432;28;19912;-75
2023/01/27 01:48:10;;;;;;;;;;;;;;;4.52;95.77;100439.00;5064128;28;19916;-75
2023/01/27 01:50:36;;;;;;;;;;;;;;;3.70;97.58;100402.75;5059574;28;19976;-74
2023/01/27 01:53:02;;;;;;;;;;;;;;;3.74;95.59;100418.13;5058275;28;20003;-75
2023/01/27 01:55:27;;;;;;;;;;;;;;;4.38;91.31;100456.63;5058374;28;19919;-74
2023/01/27 01:57:52;;;;;;;;;;;;;;;3.81;94.87;100428.41;5067083;28;19919;-74
2023/01/27 02:00:18;;;;;;;;;;;;;;;4.40;91.79;100459.19;5050624;28;19923;-74
2023/01/27 02:02:43;;;;;;;;;;;;;;;3.91;95.23;100433.72;5082052;28;19912;-74
2023/01/27 02:05:18;;;;;;;;;;;;;;;4.44;92.25;100460.97;5062952;28;20010;-74
2023/01/27 02:07:49;;;;;;;;;;;;;;;3.76;93.51;100429.22;5047624;28;20015;-74
2023/01/27 02:10:14;;;;;;;;;;;;;;;4.00;90.74;100448.31;5062841;28;20682;-74
2023/01/27 02:12:40;;;;;;;;;;;;;;;3.60;92.27;100439.06;5061359;28;19971;-74
2023/01/27 02:15:05;;;;;;;;;;;;;;;4.13;88.81;100475.75;5079204;28;19969;-74
2023/01/27 02:17:30;;;;;;;;;;;;;;;4.11;92.27;100472.31;5059301;28;19916;-74
2023/01/27 02:20:01;;;;;;;;;;;;;;;4.65;91.14;100485.09;5084396;28;20662;-74
2023/01/27 02:22:31;;;;;;;;;;;;;;;4.18;96.81;100447.78;5085796;28;19963;-75
2023/01/27 02:24:59;;;;;;;;;;;;;;;3.59;97.12;100419.53;5063330;28;20409;-75
2023/01/27 02:27:24;;;;;;;;;;;;;;;3.85;94.12;100437.84;5057689;28;19917;-74
2023/01/27 02:29:49;;;;;;;;;;;;;;;4.63;89.00;100474.00;5060367;28;19924;-75
2023/01/27 02:32:21;;;;;;;;;;;;;;;3.94;95.28;100433.75;5074886;28;20396;-75
2023/01/27 02:34:46;;;;;;;;;;;;;;;4.11;90.31;100446.81;5063835;28;19927;-74
2023/01/27 02:37:11;;;;;;;;;;;;;;;3.94;91.97;100443.09;5082101;28;19917;-74
2023/01/27 02:39:38;;;;;;;;;;;;;;;4.34;89.96;100465.06;5076637;28;19916;-74
2023/01/27 02:42:04;;;;;;;;;;;;;;;3.91;94.01;100441.38;5049706;28;20416;-74
2023/01/27 02:44:29;;;;;;;;;;;;;;;3.59;92.89;100430.56;5061863;28;19916;-74
2023/01/27 02:46:54;;;;;;;;;;;;;;;3.47;91.15;100438.00;5079226;28;19920;-75
2023/01/27 02:49:19;;;;;;;;;;;;;;;3.83;88.07;100463.31;5054915;28;19974;-74
2023/01/27 02:51:44;;;;;;;;;;;;;;;3.31;89.72;100455.50;5078456;28;19920;-74
2023/01/27 02:54:10;;;;;;;;;;;;;;;3.30;86.19;100469.03;5080620;28;19924;-74
2023/01/27 02:56:35;;;;;;;;;;;;;;;3.68;84.67;100499.53;5081753;28;20416;-74
2023/01/27 02:59:00;;;;;;;;;;;;;;;4.10;84.14;100515.63;5081319;28;20464;-74
2023/01/27 03:01:25;;;;;;;;;;;;;;;3.22;89.31;100475.66;5061855;28;20442;-74
2023/01/27 03:03:51;;;;;;;;;;;;;;;3.46;85.32;100508.41;5079800;28;20366;-74
2023/01/27 03:06:16;;;;;;;;;;;;;;;4.07;83.90;100531.72;5077480;28;19920;-74
2023/01/27 03:08:42;;;;;;;;;;;;;;;4.34;86.04;100546.69;5079752;28;19916;-75
2023/01/27 03:11:07;;;;;;;;;;;;;;;4.02;90.69;100518.03;5062399;28;19916;-74
2023/01/27 03:13:33;;;;;;;;;;;;;;;4.31;91.24;100520.25;5067447;28;20823;-74
2023/01/27 03:18:46;;;;;;;;;;;;;;;4.04;95.73;100479.81;5067789;28;19924;-74
2023/01/27 03:21:11;;;;;;;;;;;;;;;3.98;95.11;100472.94;5080438;28;19951;-74
2023/01/27 03:23:36;;;;;;;;;;;;;;;3.90;94.71;100461.72;5061624;28;19970;-74
2023/01/27 03:26:04;;;;;;;;;;;;;;;4.11;94.14;100474.00;5067797;28;19927;-74
2023/01/27 03:28:29;;;;;;;;;;;;;;;3.55;95.61;100449.16;5064005;28;19923;-74
2023/01/27 03:31:01;;;;;;;;;;;;;;;4.15;90.36;100483.41;5081846;28;20449;-74
2023/01/27 03:33:26;;;;;;;;;;;;;;;4.35;90.55;100496.53;5076704;28;19977;-74
2023/01/27 03:46:48;;;;;;;;;;;;;;;3.78;91.69;100463.19;5069179;28;19931;-74
2023/01/27 03:49:13;;;;;;;;;;;;;;;3.73;88.67;100474.16;5063350;28;20286;-74
2023/01/27 03:51:38;;;;;;;;;;;;;;;3.14;89.27;100464.44;5081587;28;19913;-74
2023/01/27 03:54:03;;;;;;;;;;;;;;;4.05;82.03;100523.19;5077659;28;19916;-74
2023/01/27 03:56:29;;;;;;;;;;;;;;;3.69;87.60;100519.06;5086278;28;19923;-74
2023/01/27 03:58:54;;;;;;;;;;;;;;;3.27;89.30;100507.16;5063950;28;19966;-74
2023/01/27 04:01:20;;;;;;;;;;;;;;;3.99;84.17;100543.44;5089812;28;19931;-74
2023/01/27 04:09:19;;;;;;;;;;;;;;;3.67;85.60;100541.16;5065111;28;19927;-74
2023/01/27 04:11:59;;;;;;;;;;;;;;;3.49;86.89;100536.50;5084597;28;19916;-74
2023/01/27 04:14:26;;;;;;;;;;;;;;;3.72;84.16;100562.47;5066896;28;20410;-74
2023/01/27 04:16:52;;;;;;;;;;;;;;;3.59;86.22;100568.13;5064388;28;20011;-74
2023/01/27 04:19:17;;;;;;;;;;;;;;;4.00;84.98;100595.31;5064712;28;19970;-74
2023/01/27 04:21:42;;;;;;;;;;;;;;;4.09;86.15;100596.34;5061951;28;19948;-74
2023/01/27 04:24:16;;;;;;;;;;;;;;;4.76;86.09;100622.25;5063521;28;20348;-74
2023/01/27 04:26:44;;;;;;;;;;;;;;;4.72;90.77;100609.41;5062794;28;19916;-75
2023/01/27 04:29:10;;;;;;;;;;;;;;;4.77;90.91;100588.25;5077732;28;19916;-74
2023/01/27 04:31:35;;;;;;;;;;;;;;;3.78;96.21;100529.44;5067742;28;19924;-75
2023/01/27 04:34:00;;;;;;;;;;;;;;;4.25;89.92;100555.84;5080539;28;19923;-74
2023/01/27 04:36:26;;;;;;;;;;;;;;;3.87;93.08;100546.63;5085090;28;19924;-74
2023/01/27 04:38:51;;;;;;;;;;;;;;;4.14;91.71;100553.09;5070221;28;20002;-74
2023/01/27 04:41:16;;;;;;;;;;;;;;;4.50;91.04;100563.13;5090179;28;19953;-74
2023/01/27 04:43:41;;;;;;;;;;;;;;;4.81;91.93;100566.19;5080997;28;19912;-74
2023/01/27 04:46:07;;;;;;;;;;;;;;;4.49;94.34;100543.53;5087688;28;19916;-74
2023/01/27 04:48:32;;;;;;;;;;;;;;;4.46;95.72;100530.72;5087017;28;20329;-74
2023/01/27 04:50:57;;;;;;;;;;;;;;;4.26;94.48;100511.66;5094316;28;20290;-75
2023/01/27 04:53:22;;;;;;;;;;;;;;;4.59;92.38;100532.66;5067281;28;19913;-74
2023/01/27 04:55:48;;;;;;;;;;;;;;;4.39;95.62;100518.69;5087643;28;19912;-74
2023/01/27 04:58:15;;;;;;;;;;;;;;;4.50;93.51;100524.84;5067213;28;19916;-75
2023/01/27 05:00:40;;;;;;;;;;;;;;;4.45;95.02;100518.81;5068709;28;19927;-74
2023/01/27 05:03:08;;;;;;;;;;;;;;;4.89;94.21;100534.00;5062121;28;20287;-75
2023/01/27 05:05:33;;;;;;;;;;;;;;;4.65;94.17;100511.47;5085825;28;19912;-74
2023/01/27 05:08:05;;;;;;;;;;;;;;;4.27;92.06;100496.41;5073126;28;19924;-74
2023/01/27 05:10:30;;;;;;;;;;;;;;;4.54;90.46;100528.31;5073049;28;20409;-75
2023/01/27 05:12:56;;;;;;;;;;;;;;;4.17;90.76;100517.44;5091464;28;20002;-75
2023/01/27 05:15:21;;;;;;;;;;;;;;;4.44;89.79;100537.50;5079570;28;20002;-74
2023/01/27 05:17:46;;;;;;;;;;;;;;;4.42;85.81;100548.50;5087179;28;19923;-74
2023/01/27 05:20:11;;;;;;;;;;;;;;;3.69;90.50;100524.16;5081828;28;19913;-75
2023/01/27 05:22:37;;;;;;;;;;;;;;;3.97;86.61;100550.25;5077073;28;19919;-75
2023/01/27 05:25:02;;;;;;;;;;;;;;;4.39;84.73;100577.38;5080604;28;19912;-74
2023/01/27 05:27:27;;;;;;;;;;;;;;;4.40;85.41;100589.28;5076636;28;20014;-75
2023/01/27 05:29:52;;;;;;;;;;;;;;;4.21;88.43;100582.97;5075503;28;19955;-74
2023/01/27 05:32:18;;;;;;;;;;;;;;;4.60;87.73;100610.91;5081976;28;19969;-74
2023/01/27 05:34:43;;;;;;;;;;;;;;;4.84;87.77;100614.75;5072511;28;20008;-74
2023/01/27 05:37:08;;;;;;;;;;;;;;;4.10;92.42;100581.91;5063980;28;19966;-75
2023/01/27 05:39:33;;;;;;;;;;;;;;;4.54;91.74;100587.84;5059521;28;19916;-75
2023/01/27 05:41:58;;;;;;;;;;;;;;;5.04;90.06;100597.22;5087413;28;19919;-75
2023/01/27 05:44:24;;;;;;;;;;;;;;;4.63;94.95;100578.63;5078178;28;19922;-75
2023/01/27 05:46:49;;;;;;;;;;;;;;;4.84;92.96;100568.81;5081079;28;19966;-75
2023/01/27 05:49:14;;;;;;;;;;;;;;;4.63;94.31;100558.22;5062191;28;19924;-75
2023/01/27 05:51:39;;;;;;;;;;;;;;;4.54;93.63;100552.13;5057375;28;20383;-75
2023/01/27 05:54:05;;;;;;;;;;;;;;;4.63;92.62;100553.13;5080812;28;19999;-74
2023/01/27 05:56:31;;;;;;;;;;;;;;;4.67;92.57;100554.88;5077398;28;19917;-75
2023/01/27 05:58:56;;;;;;;;;;;;;;;4.85;91.27;100562.84;5055835;28;20002;-74
2023/01/27 06:01:22;;;;;;;;;;;;;;;4.60;92.86;100547.13;5053229;28;19912;-75
2023/01/27 06:03:48;;;;;;;;;;;;;;;4.82;90.94;100571.31;5071371;28;19912;-74
2023/01/27 06:06:14;;;;;;;;;;;;;;;4.63;91.81;100553.13;5060531;28;19912;-74
2023/01/27 06:08:39;;;;;;;;;;;;;;;4.52;90.08;100556.34;5076158;28;19923;-74
2023/01/27 06:11:05;;;;;;;;;;;;;;;5.00;88.65;100586.09;5060294;28;19921;-74
2023/01/27 06:13:30;;;;;;;;;;;;;;;5.02;90.90;100584.41;5087948;28;20293;-74
2023/01/27 06:15:55;;;;;;;;;;;;;;;5.31;90.72;100581.44;5076912;28;19917;-74
2023/01/27 06:18:20;;;;;;;;;;;;;;;5.28;92.84;100560.13;5060333;28;20015;-75
2023/01/27 06:20:46;;;;;;;;;;;;;;;4.82;95.61;100529.63;5078223;28;19956;-74
2023/01/27 06:23:12;;;;;;;;;;;;;;;5.41;92.14;100552.66;5079065;28;20469;-75
2023/01/27 06:25:38;;;;;;;;;;;;;;;5.14;95.30;100526.72;5063214;28;20329;-74
2023/01/27 06:28:03;;;;;;;;;;;;;;;4.59;95.71;100499.50;5057575;28;20011;-74
2023/01/27 06:30:28;;;;;;;;;;;;;;;5.31;90.26;100539.72;5075851;28;20397;-74
2023/01/27 06:32:54;;;;;;;;;;;;;;;4.96;92.18;100528.16;5081754;28;20425;-75
2023/01/27 06:35:19;;;;;;;;;;;;;;;5.36;90.82;100543.19;5061420;28;19916;-74
2023/01/27 06:37:44;;;;;;;;;;;;;;;4.93;95.78;100515.34;5068259;28;20324;-74
2023/01/27 06:40:10;;;;;;;;;;;;;;;5.42;91.55;100528.78;5077887;28;20370;-74
2023/01/27 06:42:35;;;;;;;;;;;;;;;5.31;91.09;100527.78;5082320;28;19920;-74
2023/01/27 06:45:00;;;;;;;;;;;;;;;5.58;91.10;100534.13;5075709;28;19917;-74
2023/01/27 06:47:26;;;;;;;;;;;;;;;5.10;96.38;100514.72;5078368;28;19973;-74
2023/01/27 06:49:51;;;;;;;;;;;;;;;5.20;95.96;100502.13;5088401;28;19912;-75
2023/01/27 06:52:16;;;;;;;;;;;;;;;5.10;96.96;100499.41;5065471;28;19912;-74
2023/01/27 06:54:41;;;;;;;;;;;;;;;5.26;93.75;100501.34;5078880;28;20019;-74
2023/01/27 06:57:09;;;;;;;;;;;;;;;5.35;93.40;100516.78;5097634;28;20347;-74
2023/01/27 06:59:35;;;;;;;;;;;;;;;4.69;96.24;100484.31;5072601;28;20378;-74
2023/01/27 07:02:00;;;;;;;;;;;;;;;5.22;90.01;100515.78;5072554;28;19995;-74
2023/01/27 07:04:25;;;;;;;;;;;;;;;4.98;92.02;100505.19;5090413;28;19912;-74
2023/01/27 07:06:50;;;;;;;;;;;;;;;4.93;89.87;100510.25;5080587;28;20439;-75
2023/01/27 07:09:16;;;;;;;;;;;;;;;5.45;89.23;100533.97;5110810;28;19919;-74
2023/01/27 07:11:41;;;;;;;;;;;;;;;4.53;95.63;100490.88;5095696;28;19941;-74
2023/01/27 07:14:06;;;;;;;;;;;;;;;4.88;90.39;100519.53;5081467;28;19913;-74
2023/01/27 07:16:31;;;;;;;;;;;;;;;4.86;89.11;100526.28;5050753;28;19916;-74
2023/01/27 07:18:57;;;;;;;;;;;;;;;5.01;84.30;100546.09;5074364;28;20061;-75
2023/01/27 07:21:24;;;;;;;;;;;;;;;5.02;84.51;100550.38;5068083;28;21552;-75
2023/01/27 07:23:49;;;;;;;;;;;;;;;4.18;90.07;100525.13;5067663;28;19913;-75
2023/01/27 07:26:14;;;;;;;;;;;;;;;5.49;81.14;100597.88;5067887;28;19920;-75
2023/01/27 07:28:39;;;;;;;;;;;;;;;5.41;84.96;100583.31;5067526;28;19960;-75
2023/01/27 07:31:05;;;;;;;;;;;;;;;4.84;89.32;100557.75;5069370;28;19951;-75
2023/01/27 07:33:30;;;;;;;;;;;;;;;4.68;86.52;100556.63;5068006;28;19938;-75
2023/01/27 07:35:55;;;;;;;;;;;;;;;4.89;82.33;100582.50;5076029;28;20321;-74
2023/01/27 07:38:20;;;;;;;;;;;;;;;4.35;84.23;100570.47;5053564;28;20286;-75
2023/01/27 07:40:45;;;;;;;;;;;;;;;5.17;79.34;100624.66;5058651;28;19930;-75
2023/01/27 07:43:11;;;;;;;;;;;;;;;5.84;82.09;100650.34;5057129;28;19916;-75
2023/01/27 07:45:36;;;;;;;;;;;;;;;4.91;88.25;100585.94;5072744;28;19964;-76
2023/01/27 07:48:02;;;;;;;;;;;;;;;5.54;84.32;100624.34;5073459;28;20028;-75
2023/01/27 07:50:27;;;;;;;;;;;;;;;5.79;85.27;100631.56;5074239;28;19916;-75
2023/01/27 07:52:52;;;;;;;;;;;;;;;5.37;88.56;100598.56;5054178;28;19924;-74
2023/01/27 07:55:18;;;;;;;;;;;;;;;5.71;88.00;100607.56;5075792;28;20422;-75
2023/01/27 07:57:43;;;;;;;;;;;;;;;5.59;92.85;100584.41;5056868;28;19956;-75
2023/01/27 08:00:08;;;;;;;;;;;;;;;5.42;95.15;100558.59;5073493;28;20018;-74
2023/01/27 08:02:34;;;;;;;;;;;;;;;6.04;90.67;100575.63;5072197;28;19916;-75
2023/01/27 08:04:59;;;;;;;;;;;;;;;5.51;95.48;100547.66;5076289;28;19959;-76
2023/01/27 08:07:24;;;;;;;;;;;;;;;5.71;96.17;100551.34;5060680;28;20073;-76
2023/01/27 08:09:49;;;;;;;;;;;;;;;6.21;94.93;100552.81;5077598;28;19998;-76
2023/01/27 08:12:15;;;;;;;;;;;;;;;5.77;97.73;100536.09;5060212;28;19920;-75
2023/01/27 08:14:40;;;;;;;;;;;;;;;5.31;97.67;100522.69;5056691;28;19923;-76
2023/01/27 08:17:05;;;;;;;;;;;;;;;6.27;92.34;100555.41;5074620;28;20346;-76
2023/01/27 08:19:30;;;;;;;;;;;;;;;6.48;95.50;100552.22;5073014;28;19917;-76
2023/01/27 08:21:55;;;;;;;;;;;;;;;6.26;95.86;100534.09;5077163;28;20394;-76
2023/01/27 08:24:21;;;;;;;;;;;;;;;6.16;100.00;100513.50;5077691;28;20435;-76
2023/01/27 08:26:46;;;;;;;;;;;;;;;6.00;100.00;100497.16;5074286;28;19920;-75
2023/01/27 08:29:11;;;;;;;;;;;;;;;6.39;100.00;100506.09;5058321;28;19916;-76
2023/01/27 08:31:36;;;;;;;;;;;;;;;5.89;100.00;100485.94;5076582;28;20342;-75
2023/01/27 08:34:02;;;;;;;;;;;;;;;6.15;100.00;100487.06;5054830;28;20390;-76
2023/01/27 08:36:27;;;;;;;;;;;;;;;6.44;100.00;100494.19;5074219;28;19920;-75
2023/01/27 08:38:52;;;;;;;;;;;;;;;6.23;100.00;100479.50;5056351;28;19955;-75
2023/01/27 08:41:19;;;;;;;;;;;;;;;6.12;100.00;100471.72;5071741;28;20543;-74
2023/01/27 08:43:44;;;;;;;;;;;;;;;5.96;100.00;100469.84;5056932;28;19995;-75
2023/01/27 08:46:09;;;;;;;;;;;;;;;6.43;100.00;100480.53;5052792;28;20350;-75
2023/01/27 08:48:35;;;;;;;;;;;;;;;6.35;100.00;100473.63;5068735;28;20373;-72
2023/01/27 08:51:00;;;;;;;;;;;;;;;6.44;100.00;100461.75;5050523;28;20605;-72
2023/01/27 08:53:26;;;;;;;;;;;;;;;5.67;100.00;100434.56;5052276;28;20011;-73
2023/01/27 08:55:53;;;;;;;;;;;;;;;5.86;100.00;100464.59;5053271;28;20422;-73
2023/01/27 08:58:19;;;;;;;;;;;;;;;5.96;100.00;100486.03;5067893;28;19969;-74
2023/01/27 09:00:44;;;;;;;;;;;;;;;5.81;100.00;100475.59;5050580;28;20145;-73
2023/01/27 09:03:09;;;;;;;;;;;;;;;6.15;100.00;100507.53;5069804;28;20003;-74
2023/01/27 09:05:35;;;;;;;;;;;;;;;6.48;100.00;100517.25;5070200;28;19974;-74
2023/01/27 09:08:00;;;;;;;;;;;;;;;6.28;100.00;100499.16;5051851;28;19920;-74
2023/01/27 09:10:25;;;;;;;;;;;;;;;5.72;100.00;100491.69;5068797;28;20045;-73
2023/01/27 09:12:50;;;;;;;;;;;;;;;6.33;100.00;100526.47;5068700;28;19912;-74
2023/01/27 09:15:16;;;;;;;;;;;;;;;6.37;100.00;100528.25;5050032;28;19913;-74
2023/01/27 09:17:41;;;;;;;;;;;;;;;5.99;100.00;100510.78;5067855;28;19944;-74
2023/01/27 09:20:07;;;;;;;;;;;;;;;6.06;100.00;100523.63;5052942;28;19913;-74
2023/01/27 09:22:32;;;;;;;;;;;;;;;5.45;100.00;100510.09;5050429;28;19940;-74
2023/01/27 09:24:57;;;;;;;;;;;;;;;6.26;91.83;100561.38;5050680;28;20945;-74
2023/01/27 09:27:22;;;;;;;;;;;;;;;5.96;95.10;100556.78;5071625;28;19920;-74
2023/01/27 09:29:48;;;;;;;;;;;;;;;5.67;94.37;100554.69;5050855;28;20510;-74
2023/01/27 09:32:13;;;;;;;;;;;;;;;6.06;89.34;100581.59;5071339;28;19916;-74
2023/01/27 09:34:38;;;;;;;;;;;;;;;6.81;90.09;100614.81;5068563;28;19913;-74
2023/01/27 09:37:10;;;;;;;;;;;;;;;6.09;98.90;100566.31;5051970;28;20687;-74
2023/01/27 09:39:36;;;;;;;;;;;;;;;6.55;96.37;100582.16;5049465;28;19920;-74
2023/01/27 09:42:05;;;;;;;;;;;;;;;5.96;100.00;100536.34;5052050;28;19952;-75
2023/01/27 09:44:39;;;;;;;;;;;;;;;6.26;99.31;100552.00;5051365;28;19957;-75
2023/01/27 09:47:04;;;;;;;;;;;;;;;6.52;97.86;100565.91;5069355;28;19950;-74
2023/01/27 09:49:37;;;;;;;;;;;;;;;6.61;97.68;100571.94;5068980;28;19963;-74
2023/01/27 09:52:07;;;;;;;;;;;;;;;5.74;100.00;100538.59;5050038;28;19922;-74
2023/01/27 09:54:44;;;;;;;;;;;;;;;5.50;100.00;100534.03;5051105;28;19917;-74
2023/01/27 09:57:33;;;;;;;;;;;;;;;5.69;100.00;100542.78;5069723;28;21144;-74
2023/01/27 10:00:05;;;;;;;;;;;;;;;6.25;94.83;100586.13;5050870;28;20013;-73
2023/01/27 10:02:40;;;;;;;;;;;;;;;5.32;94.34;100557.63;5052033;28;19916;-74
2023/01/27 10:05:05;;;;;;;;;;;;;;;5.73;87.31;100607.59;5069378;28;20386;-74
2023/01/27 10:07:49;;;;;;;;;;;;;;;6.58;81.18;100651.28;5067962;28;19924;-74
2023/01/27 10:10:18;;;;;;;;;;;;;;;6.47;83.59;100640.91;5069866;28;20011;-74
2023/01/27 10:12:46;;;;;;;;;;;;;;;6.27;86.68;100645.84;5050987;28;20034;-73
2023/01/27 10:15:25;;;;;;;;;;;;;;;5.99;88.37;100628.41;5071141;28;20010;-74
2023/01/27 10:17:57;;;;;;;;;;;;;;;5.56;87.64;100620.97;5049721;28;20502;-74
2023/01/27 10:20:37;;;;;;;;;;;;;;;5.93;83.46;100643.63;5047426;28;19912;-74
2023/01/27 10:23:08;;;;;;;;;;;;;;;5.50;88.97;100622.59;5052038;28;20661;-74
2023/01/27 10:25:36;;;;;;;;;;;;;;;6.11;75.57;100671.19;5049832;28;19924;-74
2023/01/27 10:28:05;;;;;;;;;;;;;;;5.94;77.18;100674.38;5069693;28;19980;-74
2023/01/27 10:30:32;;;;;;;;;;;;;;;6.44;75.65;100699.75;5051209;28;19927;-73
2023/01/27 10:33:11;;;;;;;;;;;;;;;6.52;77.40;100696.44;5069079;28;19912;-74
2023/01/27 10:35:42;;;;;;;;;;;;;;;6.42;83.40;100682.66;5049706;28;20345;-74
2023/01/27 10:38:11;;;;;;;;;;;;;;;6.67;85.38;100669.31;5069445;28;20015;-74
2023/01/27 10:40:43;;;;;;;;;;;;;;;6.97;90.17;100660.22;5051902;28;20543;-74
2023/01/27 10:43:21;;;;;;;;;;;;;;;7.15;91.82;100643.28;5068206;28;19923;-74
2023/01/27 10:45:57;;;;;;;;;;;;;;;6.30;99.66;100582.75;5042978;28;19916;-74
2023/01/27 10:48:36;;;;;;;;;;;;;;;5.94;100.00;100556.75;5050268;28;19917;-74
2023/01/27 10:51:12;;;;;;;;;;;;;;;6.19;97.74;100575.81;5050362;28;19917;-74
2023/01/27 10:53:56;;;;;;;;;;;;;;;5.69;94.06;100572.59;5068777;28;20003;-74
2023/01/27 10:56:26;;;;;;;;;;;;;;;6.00;92.88;100587.53;5068455;28;19981;-73
2023/01/27 10:59:02;;;;;;;;;;;;;;;5.43;91.25;100575.66;5069589;28;19959;-73
2023/01/27 11:01:32;;;;;;;;;;;;;;;6.07;83.71;100626.81;5050767;28;20011;-74
2023/01/27 11:04:23;;;;;;;;;;;;;;;6.51;79.71;100646.09;5043876;28;20382;-74
2023/01/27 11:06:49;;;;;;;;;;;;;;;6.08;93.04;100608.06;5039451;28;19970;-74
2023/01/27 11:09:16;;;;;;;;;;;;;;;5.91;92.72;100594.16;5051544;28;19964;-74
2023/01/27 11:11:44;;;;;;;;;;;;;;;6.54;89.61;100613.69;5055154;28;19917;-73
2023/01/27 11:14:11;;;;;;;;;;;;;;;6.43;86.20;100602.47;5055804;28;19920;-72
2023/01/27 11:16:37;;;;;;;;;;;;;;;5.63;94.52;100575.91;5054097;28;19943;-73
2023/01/27 11:19:09;;;;;;;;;;;;;;;6.10;88.24;100596.16;5045147;28;19916;-73
2023/01/27 11:21:34;;;;;;;;;;;;;;;6.23;91.20;100592.06;5055745;28;19923;-73
2023/01/27 11:24:03;;;;;;;;;;;;;;;5.87;90.25;100589.03;5073094;28;20007;-73
2023/01/27 11:26:32;;;;;;;;;;;;;;;6.62;82.85;100626.59;5054283;28;19912;-73
2023/01/27 11:29:03;;;;;;;;;;;;;;;6.69;82.51;100629.22;5073147;28;19916;-72
2023/01/27 11:32:00;;;;;;;;;;;;;;;6.14;89.01;100603.03;5072108;28;19931;-72
2023/01/27 11:34:29;;;;;;;;;;;;;;;6.00;89.49;100599.47;5033003;28;19989;-73
2023/01/27 11:36:54;;;;;;;;;;;;;;;6.69;85.83;100618.13;5072050;28;19962;-73
2023/01/27 11:39:19;;;;;;;;;;;;;;;6.72;87.36;100618.16;5073735;28;20310;-73
2023/01/27 11:41:49;;;;;;;;;;;;;;;6.57;90.48;100597.50;5054571;28;19921;-72
2023/01/27 11:44:20;;;;;;;;;;;;;;;6.75;93.24;100597.72;5054256;28;20006;-73
2023/01/27 11:46:46;;;;;;;;;;;;;;;6.61;94.82;100574.50;5073336;28;19997;-73
2023/01/27 11:49:11;;;;;;;;;;;;;;;6.27;98.10;100553.72;5053668;28;19960;-73
2023/01/27 11:51:37;;;;;;;;;;;;;;;7.16;94.24;100588.63;5054624;28;20401;-73
2023/01/27 11:54:05;;;;;;;;;;;;;;;7.15;98.86;100566.44;5053021;28;19936;-73
2023/01/27 11:56:31;;;;;;;;;;;;;;;6.32;100.00;100529.88;5070930;28;19916;-75
2023/01/27 11:59:14;;;;;;;;;;;;;;;7.11;100.00;100556.16;5071924;28;20013;-73
2023/01/27 12:01:52;;;;;;;;;;;;;;;6.72;100.00;100499.53;5071645;28;19916;-74
2023/01/27 12:04:24;;;;;;;;;;;;;;;6.63;100.00;100490.91;5073094;28;19917;-74
2023/01/27 12:07:16;;;;;;;;;;;;;;;6.86;100.00;100500.47;5052278;28;19936;-74
2023/01/27 12:09:41;;;;;;;;;;;;;;;6.89;100.00;100490.28;5049492;28;20393;-73
2023/01/27 12:12:12;;;;;;;;;;;;;;;6.37;100.00;100465.13;5072074;28;20018;-74
2023/01/27 12:14:38;;;;;;;;;;;;;;;7.07;100.00;100494.63;5071706;28;19919;-74
2023/01/27 12:17:03;;;;;;;;;;;;;;;6.80;100.00;100465.47;5053018;28;19916;-73
2023/01/27 12:19:33;;;;;;;;;;;;;;;6.68;100.00;100458.56;5051657;28;19924;-73
2023/01/27 12:22:00;;;;;;;;;;;;;;;6.86;100.00;100464.63;5052146;28;19920;-73
2023/01/27 12:24:25;;;;;;;;;;;;;;;6.91;100.00;100468.06;5051646;28;19920;-73
2023/01/27 12:26:50;;;;;;;;;;;;;;;5.36;100.00;100401.00;5069674;28;19927;-73
2023/01/27 12:29:18;;;;;;;;;;;;;;;6.50;100.00;100458.41;5069722;28;19920;-72
2023/01/27 12:31:47;;;;;;;;;;;;;;;6.15;100.00;100429.97;5053240;28;19955;-73
2023/01/27 12:34:17;;;;;;;;;;;;;;;6.10;100.00;100432.47;5070933;28;20992;-73
2023/01/27 12:36:42;;;;;;;;;;;;;;;6.54;100.00;100446.47;5052207;28;19922;-73
2023/01/27 12:39:22;;;;;;;;;;;;;;;6.59;100.00;100432.88;5031972;28;20445;-73
2023/01/27 12:41:48;;;;;;;;;;;;;;;6.35;100.00;100420.75;5051815;28;20019;-73
2023/01/27 12:44:17;;;;;;;;;;;;;;;5.61;100.00;100402.13;5070409;28;20056;-73
2023/01/27 12:46:59;;;;;;;;;;;;;;;6.38;100.00;100432.72;5050800;28;20385;-73
2023/01/27 12:49:28;;;;;;;;;;;;;;;6.73;100.00;100439.78;5069764;28;19912;-73
2023/01/27 12:51:54;;;;;;;;;;;;;;;5.89;100.00;100406.69;5051605;28;20455;-73
2023/01/27 12:54:20;;;;;;;;;;;;;;;6.02;100.00;100413.63;5051093;28;19920;-73
2023/01/27 12:56:46;;;;;;;;;;;;;;;6.57;100.00;100421.78;5036318;28;19930;-73
2023/01/27 12:59:12;;;;;;;;;;;;;;;6.79;100.00;100417.63;5050629;28;19920;-73
2023/01/27 13:01:40;;;;;;;;;;;;;;;6.90;100.00;100417.72;5052496;28;19915;-72
2023/01/27 13:04:05;;;;;;;;;;;;;;;6.89;100.00;100396.38;5052720;28;19924;-73
2023/01/27 13:06:42;;;;;;;;;;;;;;;6.48;100.00;100373.09;5069886;28;20819;-73
2023/01/27 13:09:33;;;;;;;;;;;;;;;5.70;100.00;100334.91;5069713;28;19927;-73
2023/01/27 13:12:22;;;;;;;;;;;;;;;6.26;100.00;100361.84;5042292;28;19951;-72